KGWR

Details ICAO KGWR
Name GWINNER ROGER MELROE FLD
Region United States
Timezone America/Chicago (UTC-5.0)
Plans Departing 6
Arriving 6
Stats Elevation 1,266 ft / 386 m (AMSL)
Location 46.219278° -97.643694°
Runways 2
Magnetic Variation 3.598° E
Sunrise 2018-05-25 10:48:57 UTC / 2018-05-25 05:48:57 Local
Sunset 2018-05-26 02:09:00 UTC / 2018-05-25 21:09:00 Local
Advertisement - Login to hide

Runways

ID Width Length Bearing (true) Bearing (mag) Surface Threshold Offset Overrun Length
06 100 ft / 30 m 3,019 ft / 920 m 61.96° 58.36° Grass 0 ft / 0 m 0 ft / 0 m
16 60 ft / 18 m 5,064 ft / 1,543 m 163.92° 160.32° Asphalt 0 ft / 0 m 0 ft / 0 m
24 100 ft / 30 m 3,019 ft / 920 m 241.97° 238.37° Grass 0 ft / 0 m 0 ft / 0 m
34 60 ft / 18 m 5,064 ft / 1,543 m 343.92° 340.32° Asphalt 0 ft / 0 m 0 ft / 0 m

Map

Weather


0- 5 10 15 20 25 30 35+ Temperature / ° C

Clouds and Precipitation
Forecast for 2018-05-26 00:00 UTC. Updated 6 hours ago

Ground ~20,000 ft ~40,000 ft Winds

METAR

KGWR 260455Z AUTO 00000KT 10SM 21/11 A2967 RMK A01

TAF

Not found

Frequencies

Recorded 118.32 MHz AWOS 3
Unicom 122.70 MHz CTAF
Warning: Do not use this data for real-world aviation or navigation. No guarantee of current accuracy is given.